createdAt,value
2022-07-31T00:01:26.469Z,21.44
2022-07-31T00:03:58.171Z,21.41
2022-07-31T00:06:26.458Z,21.38
2022-07-31T00:08:57.212Z,21.36
2022-07-31T00:11:25.315Z,21.33
2022-07-31T00:13:57.272Z,21.30
2022-07-31T00:16:26.846Z,21.27
2022-07-31T00:18:56.422Z,21.27
2022-07-31T00:21:24.912Z,21.28
2022-07-31T00:23:53.350Z,21.29
2022-07-31T00:26:21.588Z,21.29
2022-07-31T00:28:49.733Z,21.30
2022-07-31T00:31:18.429Z,21.31
2022-07-31T00:33:46.818Z,21.30
2022-07-31T00:36:18.870Z,21.28
2022-07-31T00:38:48.212Z,21.28
2022-07-31T00:41:16.525Z,21.30
2022-07-31T00:43:44.667Z,21.27
2022-07-31T00:46:14.270Z,21.25
2022-07-31T00:48:42.967Z,21.22
2022-07-31T00:51:12.289Z,21.17
2022-07-31T00:53:41.772Z,21.14
2022-07-31T00:56:09.944Z,21.09
2022-07-31T00:58:38.058Z,21.06
2022-07-31T01:01:06.387Z,21.02
2022-07-31T01:03:35.342Z,20.98
2022-07-31T01:06:03.503Z,20.95
2022-07-31T01:08:32.787Z,20.94
2022-07-31T01:11:09.875Z,20.91
2022-07-31T01:13:46.502Z,20.91
2022-07-31T01:16:15.729Z,20.91
2022-07-31T01:18:45.179Z,20.93
2022-07-31T01:21:21.191Z,20.90
2022-07-31T01:24:20.142Z,20.80
2022-07-31T01:27:00.925Z,20.71
2022-07-31T01:29:35.483Z,20.61
2022-07-31T01:32:09.684Z,20.50
2022-07-31T01:34:43.788Z,20.39
2022-07-31T01:37:17.239Z,20.29
2022-07-31T01:39:55.976Z,20.22
2022-07-31T01:42:27.010Z,20.14
2022-07-31T01:45:01.611Z,20.08
2022-07-31T01:47:31.982Z,20.03
2022-07-31T01:50:04.693Z,19.99
2022-07-31T01:52:33.906Z,19.97
2022-07-31T01:55:04.097Z,19.98
2022-07-31T01:57:33.561Z,19.98
2022-07-31T02:00:23.491Z,19.99
2022-07-31T02:02:58.735Z,20.00
2022-07-31T02:05:39.450Z,20.03
2022-07-31T02:08:09.768Z,20.07
2022-07-31T02:10:39.551Z,20.09
2022-07-31T02:13:08.715Z,20.13
2022-07-31T02:15:38.970Z,20.14
2022-07-31T02:18:09.826Z,20.18
2022-07-31T02:20:39.851Z,20.20
2022-07-31T02:23:08.492Z,20.21
2022-07-31T02:25:38.173Z,20.25
2022-07-31T02:28:10.378Z,20.26
2022-07-31T02:30:43.359Z,20.29
2022-07-31T02:33:17.910Z,20.30
2022-07-31T02:35:52.515Z,20.32
2022-07-31T02:38:24.065Z,20.33
2022-07-31T02:40:55.136Z,20.34
2022-07-31T02:43:26.932Z,20.34
2022-07-31T02:45:58.590Z,20.35
2022-07-31T02:48:30.243Z,20.34
2022-07-31T02:50:59.344Z,20.35
2022-07-31T02:53:28.154Z,20.36
2022-07-31T02:55:56.889Z,20.37
2022-07-31T02:58:25.108Z,20.37
2022-07-31T03:01:02.220Z,20.38
2022-07-31T03:03:30.454Z,20.38
2022-07-31T03:06:01.500Z,20.38
2022-07-31T03:08:29.809Z,20.36
2022-07-31T03:10:59.327Z,20.35
2022-07-31T03:13:32.402Z,20.34
2022-07-31T03:16:02.763Z,20.31
2022-07-31T03:18:32.595Z,20.29
2022-07-31T03:21:00.794Z,20.29
2022-07-31T03:23:36.054Z,20.27
2022-07-31T03:26:05.338Z,20.26
2022-07-31T03:28:37.159Z,20.27
2022-07-31T03:31:07.922Z,20.26
2022-07-31T03:33:36.145Z,20.26
2022-07-31T03:36:05.620Z,20.25
2022-07-31T03:38:41.374Z,20.25
2022-07-31T03:41:11.834Z,20.24
2022-07-31T03:43:47.816Z,20.22
2022-07-31T03:46:21.387Z,20.18
2022-07-31T03:48:53.295Z,20.15
2022-07-31T03:51:22.282Z,20.13
2022-07-31T03:53:51.574Z,20.09
2022-07-31T03:56:21.007Z,20.06
2022-07-31T03:58:52.570Z,20.02
2022-07-31T04:01:23.758Z,19.96
2022-07-31T04:03:59.588Z,19.92
2022-07-31T04:06:28.027Z,19.88
2022-07-31T04:09:01.479Z,19.85
2022-07-31T04:11:48.705Z,19.82
2022-07-31T04:14:16.892Z,19.81
2022-07-31T04:16:46.344Z,19.82
2022-07-31T04:19:14.495Z,19.84
2022-07-31T04:21:42.734Z,19.86
2022-07-31T04:24:11.583Z,19.89
2022-07-31T04:26:39.778Z,19.91
2022-07-31T04:29:07.915Z,19.92
2022-07-31T04:31:36.095Z,19.95
2022-07-31T04:34:05.604Z,20.00
2022-07-31T04:36:33.781Z,20.07
2022-07-31T04:39:02.659Z,20.14
2022-07-31T04:41:31.210Z,20.20
2022-07-31T04:44:02.950Z,20.28
2022-07-31T04:46:31.088Z,20.34
2022-07-31T04:48:59.302Z,20.43
2022-07-31T04:51:28.828Z,20.49
2022-07-31T04:53:57.002Z,20.54
2022-07-31T04:56:41.803Z,20.60
2022-07-31T04:59:12.136Z,20.65
2022-07-31T05:01:41.967Z,20.69
2022-07-31T05:04:11.929Z,20.75
2022-07-31T05:06:43.924Z,20.84
2022-07-31T05:09:18.709Z,20.88
2022-07-31T05:11:48.397Z,20.93
2022-07-31T05:14:18.688Z,21.00
2022-07-31T05:16:47.325Z,21.07
2022-07-31T05:19:15.465Z,21.13
2022-07-31T05:21:46.997Z,21.21
2022-07-31T05:24:33.521Z,21.27
2022-07-31T05:27:05.400Z,21.36
2022-07-31T05:29:34.581Z,21.41
2022-07-31T05:32:02.821Z,21.51
2022-07-31T05:34:31.488Z,21.59
2022-07-31T05:37:02.168Z,21.68
2022-07-31T05:39:31.039Z,21.76
2022-07-31T05:41:59.198Z,21.82
2022-07-31T05:44:30.020Z,21.92
2022-07-31T05:49:28.951Z,22.04
2022-07-31T05:51:58.965Z,22.09
2022-07-31T05:54:29.043Z,22.11
2022-07-31T05:56:57.163Z,22.12
2022-07-31T05:59:25.430Z,22.14
2022-07-31T06:01:54.071Z,22.11
2022-07-31T06:04:22.333Z,22.07
2022-07-31T06:06:51.133Z,22.07
2022-07-31T06:09:19.323Z,22.10
2022-07-31T06:11:48.807Z,22.13
2022-07-31T06:14:16.895Z,22.16
2022-07-31T06:16:45.606Z,22.19
2022-07-31T06:19:13.743Z,22.28
2022-07-31T06:21:41.966Z,22.38
2022-07-31T06:24:13.521Z,22.43
2022-07-31T06:26:41.689Z,22.44
2022-07-31T06:29:12.990Z,22.48
2022-07-31T06:31:41.549Z,22.50
2022-07-31T06:34:09.726Z,22.55
2022-07-31T06:36:37.866Z,22.57
2022-07-31T06:39:07.347Z,22.60
2022-07-31T06:41:50.490Z,22.65
2022-07-31T06:44:21.275Z,22.74
2022-07-31T06:46:51.963Z,22.77
2022-07-31T06:49:20.139Z,22.85
2022-07-31T06:51:48.330Z,22.96
2022-07-31T06:54:16.891Z,23.07
2022-07-31T06:56:45.416Z,23.14
2022-07-31T06:59:13.636Z,23.20
2022-07-31T07:02:03.838Z,23.31
2022-07-31T07:05:00.775Z,23.36
2022-07-31T07:07:24.188Z,23.39
2022-07-31T07:09:59.989Z,23.46
2022-07-31T07:12:28.454Z,23.55
2022-07-31T07:14:56.762Z,23.57
2022-07-31T07:17:29.142Z,23.55
2022-07-31T07:19:57.880Z,23.49
2022-07-31T07:22:31.671Z,23.50
2022-07-31T07:25:02.894Z,23.56
2022-07-31T07:27:31.098Z,23.57
2022-07-31T07:30:00.540Z,23.62
2022-07-31T07:32:30.411Z,23.66
2022-07-31T07:34:59.649Z,23.82
2022-07-31T07:37:31.005Z,23.96
2022-07-31T07:40:09.751Z,23.99
2022-07-31T07:42:38.023Z,24.04
2022-07-31T07:45:08.545Z,24.12
2022-07-31T07:47:53.610Z,24.18
2022-07-31T07:50:29.177Z,24.30
2022-07-31T07:52:58.232Z,24.47
2022-07-31T07:55:27.016Z,24.62
2022-07-31T07:57:57.331Z,24.78
2022-07-31T08:00:25.934Z,24.94
2022-07-31T08:03:47.054Z,25.06
2022-07-31T08:05:46.323Z,25.12
2022-07-31T08:08:17.798Z,25.18
2022-07-31T08:10:45.947Z,25.16
2022-07-31T08:13:14.627Z,25.17
2022-07-31T08:15:42.819Z,25.28
2022-07-31T08:18:12.534Z,25.41
2022-07-31T08:20:41.086Z,25.46
2022-07-31T08:23:09.210Z,25.44
2022-07-31T08:25:39.510Z,25.46
2022-07-31T08:28:12.421Z,25.55
2022-07-31T08:30:47.589Z,25.70
2022-07-31T08:33:17.121Z,25.96
2022-07-31T08:35:50.571Z,26.18
2022-07-31T08:38:19.736Z,26.24
2022-07-31T08:40:48.225Z,26.28
2022-07-31T08:44:02.700Z,26.36
2022-07-31T08:46:08.825Z,26.41
2022-07-31T08:48:42.796Z,26.49
2022-07-31T08:51:13.830Z,26.57
2022-07-31T08:53:45.126Z,26.69
2022-07-31T08:56:14.098Z,26.75
2022-07-31T08:58:42.535Z,26.74
2022-07-31T09:01:13.120Z,26.64
2022-07-31T09:03:43.092Z,26.58
2022-07-31T09:06:14.389Z,26.40
2022-07-31T09:08:42.825Z,26.24
2022-07-31T09:11:13.549Z,26.09
2022-07-31T09:14:02.478Z,25.86
2022-07-31T09:16:32.184Z,25.65
2022-07-31T09:19:51.824Z,25.40
2022-07-31T09:21:53.517Z,25.18
2022-07-31T09:24:30.792Z,25.12
2022-07-31T09:27:08.866Z,24.96
2022-07-31T09:29:39.555Z,24.76
2022-07-31T09:32:14.012Z,24.60
2022-07-31T09:34:44.769Z,24.60
2022-07-31T09:37:15.157Z,24.64
2022-07-31T09:39:51.909Z,24.66
2022-07-31T09:42:24.494Z,24.72
2022-07-31T09:44:53.226Z,24.75
2022-07-31T09:47:23.008Z,24.69
2022-07-31T09:49:58.296Z,24.66
2022-07-31T09:52:28.174Z,24.61
2022-07-31T09:55:15.763Z,24.49
2022-07-31T09:57:54.437Z,24.44
2022-07-31T10:00:24.480Z,24.46
2022-07-31T10:02:56.340Z,24.53
2022-07-31T10:05:28.394Z,24.38
2022-07-31T10:08:00.110Z,24.16
2022-07-31T10:10:32.983Z,23.88
2022-07-31T10:13:07.945Z,23.81
2022-07-31T10:15:43.248Z,23.79
2022-07-31T10:18:16.964Z,23.71
2022-07-31T10:20:56.637Z,23.60
2022-07-31T10:23:30.384Z,23.48
2022-07-31T10:26:00.737Z,23.40
2022-07-31T10:28:29.915Z,23.24
2022-07-31T10:30:58.950Z,23.21
2022-07-31T10:33:43.546Z,23.27
2022-07-31T10:36:20.296Z,23.23
2022-07-31T10:38:57.757Z,23.10
2022-07-31T10:41:42.566Z,23.30
2022-07-31T10:44:22.280Z,23.41
2022-07-31T10:46:50.591Z,23.50
2022-07-31T10:49:18.822Z,23.71
2022-07-31T10:51:54.699Z,23.71
2022-07-31T10:54:22.901Z,23.69
2022-07-31T10:56:51.142Z,23.79
2022-07-31T10:59:30.057Z,23.88
2022-07-31T11:01:58.493Z,23.96
2022-07-31T11:04:28.806Z,23.99
2022-07-31T11:06:59.364Z,23.97
2022-07-31T11:09:30.231Z,23.94
2022-07-31T11:12:00.043Z,23.81
2022-07-31T11:14:36.181Z,23.76
2022-07-31T11:17:05.141Z,23.82
2022-07-31T11:19:46.244Z,23.84
2022-07-31T11:22:31.208Z,23.76
2022-07-31T11:25:01.187Z,23.64
2022-07-31T11:27:34.967Z,23.59
2022-07-31T11:30:12.971Z,23.70
2022-07-31T11:32:42.072Z,23.80
2022-07-31T11:35:10.268Z,23.53
2022-07-31T11:37:56.626Z,23.23
2022-07-31T11:40:27.656Z,22.95
2022-07-31T11:43:24.788Z,22.85
2022-07-31T11:45:49.745Z,22.87
2022-07-31T11:48:19.682Z,22.97
2022-07-31T11:50:49.650Z,23.13
2022-07-31T11:53:21.185Z,23.00
2022-07-31T11:55:54.491Z,22.79
2022-07-31T11:58:25.800Z,22.56
2022-07-31T12:00:57.218Z,22.36
2022-07-31T12:03:34.186Z,22.07
2022-07-31T12:06:02.575Z,21.99
2022-07-31T12:08:32.381Z,21.99
2022-07-31T12:11:03.174Z,21.96
2022-07-31T12:13:32.265Z,21.96
2022-07-31T12:16:04.061Z,21.95
2022-07-31T12:18:34.830Z,21.81
2022-07-31T12:21:08.356Z,21.80
2022-07-31T12:23:46.375Z,21.93
2022-07-31T12:26:24.411Z,22.03
2022-07-31T12:29:02.950Z,22.05
2022-07-31T12:31:45.150Z,22.05
2022-07-31T12:34:28.562Z,22.01
2022-07-31T12:37:05.469Z,22.00
2022-07-31T12:39:54.775Z,21.88
2022-07-31T12:42:30.594Z,21.72
2022-07-31T12:45:18.380Z,21.72
2022-07-31T12:47:51.265Z,21.72
2022-07-31T12:50:20.852Z,21.76
2022-07-31T12:52:49.147Z,21.73
2022-07-31T12:55:19.513Z,21.65
2022-07-31T12:57:51.290Z,21.53
2022-07-31T13:00:22.707Z,21.38
2022-07-31T13:02:51.809Z,21.27
2022-07-31T13:05:29.480Z,21.23
2022-07-31T13:07:57.710Z,21.25
2022-07-31T13:10:32.351Z,21.24
2022-07-31T13:13:03.261Z,21.15
2022-07-31T13:15:31.567Z,21.14
2022-07-31T13:18:05.066Z,21.19
2022-07-31T13:20:33.704Z,21.23
2022-07-31T13:23:04.123Z,21.27
2022-07-31T13:25:33.670Z,21.32
2022-07-31T13:28:10.043Z,21.31
2022-07-31T13:30:45.150Z,21.29
2022-07-31T13:33:13.360Z,21.31
2022-07-31T13:35:44.560Z,21.32
2022-07-31T13:38:14.993Z,21.26
2022-07-31T13:41:01.817Z,21.28
2022-07-31T13:43:29.949Z,21.23
2022-07-31T13:45:58.099Z,21.25
2022-07-31T13:48:27.866Z,21.37
2022-07-31T13:50:56.251Z,21.44
2022-07-31T13:53:24.410Z,21.41
2022-07-31T13:55:54.945Z,21.35
2022-07-31T13:58:23.139Z,21.40
2022-07-31T14:00:51.408Z,21.44
2022-07-31T14:03:21.318Z,21.44
2022-07-31T14:05:50.336Z,21.40
2022-07-31T14:11:13.771Z,21.43
2022-07-31T14:13:45.170Z,21.39
2022-07-31T14:16:13.339Z,21.37
2022-07-31T14:18:41.584Z,21.48
2022-07-31T14:21:09.990Z,21.50
2022-07-31T14:23:40.777Z,21.50
2022-07-31T14:26:10.728Z,21.56
2022-07-31T14:28:41.347Z,21.52
2022-07-31T14:31:11.295Z,21.52
2022-07-31T14:33:41.029Z,21.57
2022-07-31T14:36:12.305Z,21.65
2022-07-31T14:38:44.279Z,21.69
2022-07-31T14:41:16.557Z,21.75
2022-07-31T14:43:46.775Z,21.89
2022-07-31T14:46:16.545Z,21.94
2022-07-31T14:48:52.317Z,22.02
2022-07-31T14:51:20.962Z,22.05
2022-07-31T14:53:49.973Z,22.11
2022-07-31T14:56:39.688Z,22.19
2022-07-31T14:59:09.678Z,22.20
2022-07-31T15:01:37.977Z,22.25
2022-07-31T15:04:06.579Z,22.30
2022-07-31T15:06:37.549Z,22.25
2022-07-31T15:09:23.383Z,22.13
2022-07-31T15:12:00.121Z,21.95
2022-07-31T15:14:29.738Z,21.86
2022-07-31T15:16:59.091Z,21.95
2022-07-31T15:19:29.985Z,22.04
2022-07-31T15:22:10.057Z,22.12
2022-07-31T15:24:49.066Z,22.11
2022-07-31T15:27:22.480Z,22.13
2022-07-31T15:30:04.983Z,22.16
2022-07-31T15:32:39.727Z,22.30
2022-07-31T15:35:12.267Z,22.40
2022-07-31T15:37:44.021Z,22.57
2022-07-31T15:40:18.034Z,22.84
2022-07-31T15:42:50.389Z,23.17
2022-07-31T15:45:21.562Z,23.34
2022-07-31T15:47:49.900Z,23.30
2022-07-31T15:50:20.214Z,23.21
2022-07-31T15:52:48.661Z,23.13
2022-07-31T15:55:18.846Z,23.12
2022-07-31T15:57:47.140Z,23.05
2022-07-31T16:00:17.741Z,22.96
2022-07-31T16:02:47.964Z,22.95
2022-07-31T16:05:35.874Z,23.08
2022-07-31T16:08:34.088Z,23.42
2022-07-31T16:11:02.264Z,23.85
2022-07-31T16:13:31.407Z,23.82
2022-07-31T16:16:00.929Z,23.65
2022-07-31T16:18:29.193Z,23.60
2022-07-31T16:20:58.282Z,23.62
2022-07-31T16:23:27.917Z,23.70
2022-07-31T16:25:59.471Z,23.77
2022-07-31T16:28:27.660Z,23.88
2022-07-31T16:30:55.834Z,23.89
2022-07-31T16:33:25.355Z,23.84
2022-07-31T16:35:57.155Z,23.75
2022-07-31T16:38:28.123Z,23.66
2022-07-31T16:40:56.230Z,23.46
2022-07-31T16:43:48.399Z,23.29
2022-07-31T16:46:12.861Z,23.80
2022-07-31T16:48:49.179Z,24.92
2022-07-31T16:51:20.281Z,26.67
2022-07-31T16:54:13.940Z,28.03
2022-07-31T16:56:37.500Z,27.69
2022-07-31T16:59:08.815Z,26.89
2022-07-31T17:02:00.073Z,26.25
2022-07-31T17:04:27.011Z,25.68
2022-07-31T17:06:55.446Z,25.25
2022-07-31T17:09:23.866Z,24.86
2022-07-31T17:11:56.894Z,24.49
2022-07-31T17:14:28.533Z,24.25
2022-07-31T17:16:59.042Z,24.02
2022-07-31T17:19:42.102Z,23.77
2022-07-31T17:22:18.595Z,23.56
2022-07-31T17:24:52.741Z,23.42
2022-07-31T17:27:21.865Z,23.24
2022-07-31T17:29:50.691Z,23.47
2022-07-31T17:32:18.885Z,24.01
2022-07-31T17:34:49.589Z,24.68
2022-07-31T17:37:18.161Z,24.92
2022-07-31T17:39:47.165Z,25.40
2022-07-31T17:42:15.594Z,25.21
2022-07-31T17:44:48.246Z,24.95
2022-07-31T17:47:20.758Z,24.68
2022-07-31T17:49:50.288Z,24.41
2022-07-31T17:52:21.495Z,24.15
2022-07-31T17:54:53.050Z,23.94
2022-07-31T17:57:22.824Z,23.72
2022-07-31T17:59:51.953Z,23.49
2022-07-31T18:02:20.218Z,23.33
2022-07-31T18:04:49.856Z,23.19
2022-07-31T18:07:20.421Z,23.09
2022-07-31T18:09:48.561Z,23.02
2022-07-31T18:12:18.450Z,22.95
2022-07-31T18:14:47.337Z,22.81
2022-07-31T18:17:15.551Z,22.46
2022-07-31T18:19:43.742Z,22.14
2022-07-31T18:22:18.511Z,21.94
2022-07-31T18:24:49.547Z,21.83
2022-07-31T18:27:20.639Z,21.74
2022-07-31T18:29:53.542Z,21.60
2022-07-31T18:32:24.840Z,21.52
2022-07-31T18:34:53.457Z,21.48
2022-07-31T18:37:24.728Z,21.44
2022-07-31T18:39:52.917Z,21.37
2022-07-31T18:42:24.065Z,21.42
2022-07-31T18:44:52.627Z,21.37
2022-07-31T18:47:20.886Z,21.32
2022-07-31T18:50:59.640Z,21.28
2022-07-31T18:52:40.387Z,21.24
2022-07-31T18:55:09.748Z,21.22
2022-07-31T18:57:38.186Z,21.20
2022-07-31T19:00:10.744Z,21.18
2022-07-31T19:02:39.744Z,21.19
2022-07-31T19:05:08.987Z,21.16
2022-07-31T19:07:50.966Z,21.14
2022-07-31T19:10:29.745Z,21.11
2022-07-31T19:12:59.587Z,21.08
2022-07-31T19:15:27.831Z,21.08
2022-07-31T19:17:58.780Z,21.05
2022-07-31T19:20:57.488Z,21.04
2022-07-31T19:23:24.014Z,21.06
2022-07-31T19:25:59.467Z,21.07
2022-07-31T19:28:32.819Z,21.04
2022-07-31T19:31:01.659Z,21.03
2022-07-31T19:33:31.156Z,21.03
2022-07-31T19:36:02.247Z,21.02
2022-07-31T19:38:35.745Z,20.98
2022-07-31T19:41:04.841Z,20.96
2022-07-31T19:43:33.616Z,20.96
2022-07-31T19:46:11.156Z,20.98
2022-07-31T19:48:41.862Z,20.93
2022-07-31T19:51:10.405Z,20.90
2022-07-31T19:53:40.194Z,20.91
2022-07-31T19:56:08.816Z,20.85
2022-07-31T19:58:38.322Z,20.75
2022-07-31T20:01:09.999Z,20.68
2022-07-31T20:03:38.569Z,20.58
2022-07-31T20:06:07.600Z,20.51
2022-07-31T20:08:35.860Z,20.45
2022-07-31T20:11:05.908Z,20.43
2022-07-31T20:13:43.862Z,20.40
2022-07-31T20:16:11.988Z,20.42
2022-07-31T20:18:40.140Z,20.45
2022-07-31T20:21:11.532Z,20.47
2022-07-31T20:23:41.520Z,20.47
2022-07-31T20:26:17.123Z,20.49
2022-07-31T20:28:45.869Z,20.50
2022-07-31T20:31:15.751Z,20.49
2022-07-31T20:33:49.117Z,20.47
2022-07-31T20:36:26.837Z,20.49
2022-07-31T20:38:56.678Z,20.50
2022-07-31T20:41:30.099Z,20.50
2022-07-31T20:43:58.375Z,20.51
2022-07-31T20:46:27.681Z,20.49
2022-07-31T20:48:57.255Z,20.43
2022-07-31T20:51:25.690Z,20.36
2022-07-31T20:53:54.918Z,20.28
2022-07-31T20:56:27.008Z,20.22
2022-07-31T20:58:55.939Z,20.17
2022-07-31T21:01:26.045Z,20.11
2022-07-31T21:03:55.951Z,20.11
2022-07-31T21:06:24.203Z,20.07
2022-07-31T21:08:52.380Z,20.04
2022-07-31T21:11:20.702Z,20.03
2022-07-31T21:13:50.533Z,20.03
2022-07-31T21:16:25.802Z,20.03
2022-07-31T21:18:54.707Z,20.02
2022-07-31T21:21:22.957Z,20.00
2022-07-31T21:23:51.591Z,19.98
2022-07-31T21:26:20.406Z,19.93
2022-07-31T21:28:51.322Z,19.91
2022-07-31T21:31:20.084Z,19.83
2022-07-31T21:33:48.983Z,19.74
2022-07-31T21:36:18.691Z,19.72
2022-07-31T21:38:47.455Z,19.76
2022-07-31T21:41:20.624Z,19.77
2022-07-31T21:43:59.446Z,19.79
2022-07-31T21:46:30.253Z,19.81
2022-07-31T21:48:59.774Z,19.83
2022-07-31T21:51:31.637Z,19.85
2022-07-31T21:53:59.824Z,19.85
2022-07-31T21:56:29.812Z,19.86
2022-07-31T21:59:02.239Z,19.86
2022-07-31T22:01:30.830Z,19.86
2022-07-31T22:03:59.510Z,19.90
2022-07-31T22:06:45.123Z,19.94
2022-07-31T22:09:13.388Z,19.94
2022-07-31T22:11:54.939Z,19.96
2022-07-31T22:14:31.344Z,19.96
2022-07-31T22:17:00.463Z,19.95
2022-07-31T22:19:29.486Z,19.94
2022-07-31T22:21:58.279Z,19.95
2022-07-31T22:24:27.307Z,19.95
2022-07-31T22:27:16.805Z,19.95
2022-07-31T22:29:47.201Z,19.95
2022-07-31T22:32:15.786Z,19.98
2022-07-31T22:34:44.233Z,20.01
2022-07-31T22:37:14.200Z,20.02
2022-07-31T22:39:42.776Z,20.04
2022-07-31T22:42:11.469Z,20.07
2022-07-31T22:44:39.823Z,20.09
2022-07-31T22:47:10.945Z,20.08
2022-07-31T22:49:40.031Z,20.06
2022-07-31T22:52:08.310Z,20.07
2022-07-31T22:54:36.443Z,20.06
2022-07-31T22:57:05.100Z,20.05
2022-07-31T22:59:35.085Z,20.02
2022-07-31T23:02:04.650Z,20.00
2022-07-31T23:04:34.632Z,19.98
2022-07-31T23:07:03.111Z,19.98
2022-07-31T23:09:31.625Z,19.95
2022-07-31T23:12:00.692Z,19.94
2022-07-31T23:14:31.800Z,19.89
2022-07-31T23:17:00.393Z,19.89
2022-07-31T23:19:31.346Z,19.86
2022-07-31T23:22:00.951Z,19.83
2022-07-31T23:24:29.134Z,19.81
2022-07-31T23:26:57.479Z,19.78
2022-07-31T23:29:25.715Z,19.76
2022-07-31T23:31:53.818Z,19.74
2022-07-31T23:34:21.959Z,19.71
2022-07-31T23:36:50.354Z,19.72
2022-07-31T23:39:22.920Z,19.72
2022-07-31T23:42:08.898Z,19.72
2022-07-31T23:44:37.905Z,19.69
2022-07-31T23:47:08.796Z,19.66
2022-07-31T23:49:37.015Z,19.65
2022-07-31T23:52:06.014Z,19.61
2022-07-31T23:54:35.840Z,19.58
2022-07-31T23:57:03.968Z,19.57
2022-07-31T23:59:32.164Z,19.54
